sensor_id;sensor_type;location;lat;lon;timestamp;temperature;humidity
43346;DHT22;28937;51.160;4.146;2023-02-15T00:01:23;10.70;94.00
43346;DHT22;28937;51.160;4.146;2023-02-15T00:03:49;10.70;94.00
43346;DHT22;28937;51.160;4.146;2023-02-15T00:06:15;10.70;93.90
43346;DHT22;28937;51.160;4.146;2023-02-15T00:08:41;10.70;93.90
43346;DHT22;28937;51.160;4.146;2023-02-15T00:11:17;10.70;93.90
43346;DHT22;28937;51.160;4.146;2023-02-15T00:14:07;10.70;93.90
43346;DHT22;28937;51.160;4.146;2023-02-15T00:16:34;10.70;93.90
43346;DHT22;28937;51.160;4.146;2023-02-15T00:19:00;10.60;93.90
43346;DHT22;28937;51.160;4.146;2023-02-15T00:21:28;10.70;94.00
43346;DHT22;28937;51.160;4.146;2023-02-15T00:23:55;10.70;93.80
43346;DHT22;28937;51.160;4.146;2023-02-15T00:26:21;10.60;93.80
43346;DHT22;28937;51.160;4.146;2023-02-15T00:28:47;10.60;93.80
43346;DHT22;28937;51.160;4.146;2023-02-15T00:31:13;10.60;93.90
43346;DHT22;28937;51.160;4.146;2023-02-15T00:33:39;10.60;94.00
43346;DHT22;28937;51.160;4.146;2023-02-15T00:36:07;10.50;93.90
43346;DHT22;28937;51.160;4.146;2023-02-15T00:38:33;10.50;93.90
43346;DHT22;28937;51.160;4.146;2023-02-15T00:41:01;10.50;93.90
43346;DHT22;28937;51.160;4.146;2023-02-15T00:43:28;10.50;93.90
43346;DHT22;28937;51.160;4.146;2023-02-15T00:45:54;10.50;93.90
43346;DHT22;28937;51.160;4.146;2023-02-15T00:48:20;10.50;93.80
43346;DHT22;28937;51.160;4.146;2023-02-15T00:50:51;10.50;93.90
43346;DHT22;28937;51.160;4.146;2023-02-15T00:53:18;10.40;93.90
43346;DHT22;28937;51.160;4.146;2023-02-15T00:55:43;10.50;94.00
43346;DHT22;28937;51.160;4.146;2023-02-15T00:58:10;10.50;94.00
43346;DHT22;28937;51.160;4.146;2023-02-15T01:00:37;10.40;94.00
43346;DHT22;28937;51.160;4.146;2023-02-15T01:03:03;10.40;94.00
43346;DHT22;28937;51.160;4.146;2023-02-15T01:05:30;10.40;93.90
43346;DHT22;28937;51.160;4.146;2023-02-15T01:07:56;10.40;94.00
43346;DHT22;28937;51.160;4.146;2023-02-15T01:10:22;10.30;93.80
43346;DHT22;28937;51.160;4.146;2023-02-15T01:12:50;10.30;93.80
43346;DHT22;28937;51.160;4.146;2023-02-15T01:15:16;10.30;93.90
43346;DHT22;28937;51.160;4.146;2023-02-15T01:17:42;10.30;94.00
43346;DHT22;28937;51.160;4.146;2023-02-15T01:20:11;10.30;94.00
43346;DHT22;28937;51.160;4.146;2023-02-15T01:22:37;10.30;94.00
43346;DHT22;28937;51.160;4.146;2023-02-15T01:25:03;10.30;93.90
43346;DHT22;28937;51.160;4.146;2023-02-15T01:27:29;10.20;93.80
43346;DHT22;28937;51.160;4.146;2023-02-15T01:29:58;10.30;93.80
43346;DHT22;28937;51.160;4.146;2023-02-15T01:32:23;10.20;93.80
43346;DHT22;28937;51.160;4.146;2023-02-15T01:34:49;10.20;93.90
43346;DHT22;28937;51.160;4.146;2023-02-15T01:37:15;10.20;94.40
43346;DHT22;28937;51.160;4.146;2023-02-15T01:39:40;10.20;94.30
43346;DHT22;28937;51.160;4.146;2023-02-15T01:42:10;10.20;94.30
43346;DHT22;28937;51.160;4.146;2023-02-15T01:44:55;10.20;94.20
43346;DHT22;28937;51.160;4.146;2023-02-15T01:50:17;10.20;94.10
43346;DHT22;28937;51.160;4.146;2023-02-15T01:55:39;10.10;94.10
43346;DHT22;28937;51.160;4.146;2023-02-15T01:58:06;10.10;94.10
43346;DHT22;28937;51.160;4.146;2023-02-15T02:00:32;10.10;94.10
43346;DHT22;28937;51.160;4.146;2023-02-15T02:03:00;10.00;94.10
43346;DHT22;28937;51.160;4.146;2023-02-15T02:05:26;10.10;94.10
43346;DHT22;28937;51.160;4.146;2023-02-15T02:07:56;10.00;94.10
43346;DHT22;28937;51.160;4.146;2023-02-15T02:10:23;10.00;94.10
43346;DHT22;28937;51.160;4.146;2023-02-15T02:12:54;10.00;94.00
43346;DHT22;28937;51.160;4.146;2023-02-15T02:15:23;10.00;94.00
43346;DHT22;28937;51.160;4.146;2023-02-15T02:18:15;9.90;93.90
43346;DHT22;28937;51.160;4.146;2023-02-15T02:20:59;9.90;93.90
43346;DHT22;28937;51.160;4.146;2023-02-15T02:26:00;9.90;94.10
43346;DHT22;28937;51.160;4.146;2023-02-15T02:42:18;9.80;94.20
43346;DHT22;28937;51.160;4.146;2023-02-15T02:44:54;9.80;94.10
43346;DHT22;28937;51.160;4.146;2023-02-15T02:47:38;9.80;94.20
43346;DHT22;28937;51.160;4.146;2023-02-15T02:50:08;9.80;94.10
43346;DHT22;28937;51.160;4.146;2023-02-15T02:55:10;9.80;94.20
43346;DHT22;28937;51.160;4.146;2023-02-15T02:57:43;9.70;94.20
43346;DHT22;28937;51.160;4.146;2023-02-15T03:00:11;9.80;94.30
43346;DHT22;28937;51.160;4.146;2023-02-15T03:02:40;9.70;94.50
43346;DHT22;28937;51.160;4.146;2023-02-15T03:05:13;9.70;94.50
43346;DHT22;28937;51.160;4.146;2023-02-15T03:07:41;9.70;94.50
43346;DHT22;28937;51.160;4.146;2023-02-15T03:10:09;9.70;94.40
43346;DHT22;28937;51.160;4.146;2023-02-15T03:12:38;9.60;94.40
43346;DHT22;28937;51.160;4.146;2023-02-15T03:15:25;9.70;94.40
43346;DHT22;28937;51.160;4.146;2023-02-15T03:17:56;9.70;94.40
43346;DHT22;28937;51.160;4.146;2023-02-15T03:20:29;9.60;94.50
43346;DHT22;28937;51.160;4.146;2023-02-15T03:23:07;9.60;94.60
43346;DHT22;28937;51.160;4.146;2023-02-15T03:25:40;9.60;94.60
43346;DHT22;28937;51.160;4.146;2023-02-15T03:28:09;9.60;94.60
43346;DHT22;28937;51.160;4.146;2023-02-15T03:30:38;9.60;94.80
43346;DHT22;28937;51.160;4.146;2023-02-15T03:33:06;9.60;94.80
43346;DHT22;28937;51.160;4.146;2023-02-15T03:35:39;9.60;94.90
43346;DHT22;28937;51.160;4.146;2023-02-15T03:38:09;9.50;94.90
43346;DHT22;28937;51.160;4.146;2023-02-15T03:40:41;9.60;94.90
43346;DHT22;28937;51.160;4.146;2023-02-15T03:46:12;9.50;94.80
43346;DHT22;28937;51.160;4.146;2023-02-15T03:48:43;9.50;94.80
43346;DHT22;28937;51.160;4.146;2023-02-15T03:51:14;9.50;94.70
43346;DHT22;28937;51.160;4.146;2023-02-15T03:54:22;9.40;94.80
43346;DHT22;28937;51.160;4.146;2023-02-15T03:57:10;9.40;94.90
43346;DHT22;28937;51.160;4.146;2023-02-15T03:59:55;9.40;94.90
43346;DHT22;28937;51.160;4.146;2023-02-15T04:05:26;9.40;94.80
43346;DHT22;28937;51.160;4.146;2023-02-15T04:07:52;9.40;94.70
43346;DHT22;28937;51.160;4.146;2023-02-15T04:10:18;9.40;94.70
43346;DHT22;28937;51.160;4.146;2023-02-15T04:13:02;9.30;94.70
43346;DHT22;28937;51.160;4.146;2023-02-15T04:15:28;9.30;94.70
43346;DHT22;28937;51.160;4.146;2023-02-15T04:18:12;9.30;94.70
43346;DHT22;28937;51.160;4.146;2023-02-15T04:20:38;9.30;94.70
43346;DHT22;28937;51.160;4.146;2023-02-15T04:23:21;9.30;94.70
43346;DHT22;28937;51.160;4.146;2023-02-15T04:26:05;9.30;94.70
43346;DHT22;28937;51.160;4.146;2023-02-15T04:28:33;9.30;94.70
43346;DHT22;28937;51.160;4.146;2023-02-15T04:30:58;9.30;94.70
43346;DHT22;28937;51.160;4.146;2023-02-15T04:33:24;9.20;94.60
43346;DHT22;28937;51.160;4.146;2023-02-15T04:35:50;9.20;94.60
43346;DHT22;28937;51.160;4.146;2023-02-15T04:38:16;9.20;94.60
43346;DHT22;28937;51.160;4.146;2023-02-15T04:40:41;9.20;94.50
43346;DHT22;28937;51.160;4.146;2023-02-15T04:43:07;9.20;94.40
43346;DHT22;28937;51.160;4.146;2023-02-15T04:45:32;9.20;94.50
43346;DHT22;28937;51.160;4.146;2023-02-15T04:47:58;9.20;94.40
43346;DHT22;28937;51.160;4.146;2023-02-15T04:50:24;9.20;94.50
43346;DHT22;28937;51.160;4.146;2023-02-15T04:52:49;9.10;94.40
43346;DHT22;28937;51.160;4.146;2023-02-15T04:55:15;9.20;94.50
43346;DHT22;28937;51.160;4.146;2023-02-15T04:57:41;9.10;94.50
43346;DHT22;28937;51.160;4.146;2023-02-15T05:00:07;9.10;94.40
43346;DHT22;28937;51.160;4.146;2023-02-15T05:02:34;9.10;94.40
43346;DHT22;28937;51.160;4.146;2023-02-15T05:04:59;9.00;94.30
43346;DHT22;28937;51.160;4.146;2023-02-15T05:07:25;9.10;94.30
43346;DHT22;28937;51.160;4.146;2023-02-15T05:09:51;9.10;94.30
43346;DHT22;28937;51.160;4.146;2023-02-15T05:12:16;9.10;94.30
43346;DHT22;28937;51.160;4.146;2023-02-15T05:14:42;9.00;94.30
43346;DHT22;28937;51.160;4.146;2023-02-15T05:17:08;9.00;94.30
43346;DHT22;28937;51.160;4.146;2023-02-15T05:19:34;9.00;94.30
43346;DHT22;28937;51.160;4.146;2023-02-15T05:21:59;9.00;94.40
43346;DHT22;28937;51.160;4.146;2023-02-15T05:24:25;9.00;94.50
43346;DHT22;28937;51.160;4.146;2023-02-15T05:27:12;9.00;94.50
43346;DHT22;28937;51.160;4.146;2023-02-15T05:29:56;9.00;94.30
43346;DHT22;28937;51.160;4.146;2023-02-15T05:32:22;8.90;94.30
43346;DHT22;28937;51.160;4.146;2023-02-15T05:34:48;8.90;94.40
43346;DHT22;28937;51.160;4.146;2023-02-15T05:37:14;8.90;94.40
43346;DHT22;28937;51.160;4.146;2023-02-15T05:39:39;8.90;94.30
43346;DHT22;28937;51.160;4.146;2023-02-15T05:42:05;8.90;94.30
43346;DHT22;28937;51.160;4.146;2023-02-15T05:44:31;8.80;93.50
43346;DHT22;28937;51.160;4.146;2023-02-15T05:46:57;8.40;94.20
43346;DHT22;28937;51.160;4.146;2023-02-15T05:49:23;7.90;95.00
43346;DHT22;28937;51.160;4.146;2023-02-15T05:51:48;7.50;95.80
43346;DHT22;28937;51.160;4.146;2023-02-15T05:54:14;7.30;96.40
43346;DHT22;28937;51.160;4.146;2023-02-15T05:56:40;7.10;96.80
43346;DHT22;28937;51.160;4.146;2023-02-15T05:59:05;6.90;97.20
43346;DHT22;28937;51.160;4.146;2023-02-15T06:01:31;6.90;97.40
43346;DHT22;28937;51.160;4.146;2023-02-15T06:03:57;6.80;97.60
43346;DHT22;28937;51.160;4.146;2023-02-15T06:06:22;6.80;97.90
43346;DHT22;28937;51.160;4.146;2023-02-15T06:08:48;6.80;98.00
43346;DHT22;28937;51.160;4.146;2023-02-15T06:11:14;6.80;98.20
43346;DHT22;28937;51.160;4.146;2023-02-15T06:13:39;6.80;98.40
43346;DHT22;28937;51.160;4.146;2023-02-15T06:16:06;6.80;98.60
43346;DHT22;28937;51.160;4.146;2023-02-15T06:18:32;6.70;98.70
43346;DHT22;28937;51.160;4.146;2023-02-15T06:20:57;6.80;98.70
43346;DHT22;28937;51.160;4.146;2023-02-15T06:23:23;6.70;98.90
43346;DHT22;28937;51.160;4.146;2023-02-15T06:25:49;6.70;99.00
43346;DHT22;28937;51.160;4.146;2023-02-15T06:28:14;6.70;99.10
43346;DHT22;28937;51.160;4.146;2023-02-15T06:30:41;6.70;99.00
43346;DHT22;28937;51.160;4.146;2023-02-15T06:33:07;6.60;99.30
43346;DHT22;28937;51.160;4.146;2023-02-15T06:35:33;7.00;99.10
43346;DHT22;28937;51.160;4.146;2023-02-15T06:37:58;7.40;98.20
43346;DHT22;28937;51.160;4.146;2023-02-15T06:40:24;7.70;97.70
43346;DHT22;28937;51.160;4.146;2023-02-15T06:42:50;7.80;97.30
43346;DHT22;28937;51.160;4.146;2023-02-15T06:45:15;8.00;97.30
43346;DHT22;28937;51.160;4.146;2023-02-15T06:47:41;8.10;96.90
43346;DHT22;28937;51.160;4.146;2023-02-15T06:50:08;8.10;96.80
43346;DHT22;28937;51.160;4.146;2023-02-15T06:52:34;8.20;96.60
43346;DHT22;28937;51.160;4.146;2023-02-15T06:55:00;8.40;96.30
43346;DHT22;28937;51.160;4.146;2023-02-15T06:57:25;8.30;96.30
43346;DHT22;28937;51.160;4.146;2023-02-15T06:59:51;8.30;96.30
43346;DHT22;28937;51.160;4.146;2023-02-15T07:02:18;8.40;96.40
43346;DHT22;28937;51.160;4.146;2023-02-15T07:04:43;8.40;96.20
43346;DHT22;28937;51.160;4.146;2023-02-15T07:07:11;8.20;96.80
43346;DHT22;28937;51.160;4.146;2023-02-15T07:09:37;8.40;96.30
43346;DHT22;28937;51.160;4.146;2023-02-15T07:12:03;8.50;96.00
43346;DHT22;28937;51.160;4.146;2023-02-15T07:14:47;8.50;96.00
43346;DHT22;28937;51.160;4.146;2023-02-15T07:17:13;8.40;96.20
43346;DHT22;28937;51.160;4.146;2023-02-15T07:19:39;8.50;96.00
43346;DHT22;28937;51.160;4.146;2023-02-15T07:22:04;8.50;96.00
43346;DHT22;28937;51.160;4.146;2023-02-15T07:24:30;8.30;96.50
43346;DHT22;28937;51.160;4.146;2023-02-15T07:26:56;8.30;96.40
43346;DHT22;28937;51.160;4.146;2023-02-15T07:29:23;8.30;96.40
43346;DHT22;28937;51.160;4.146;2023-02-15T07:31:49;8.40;96.40
43346;DHT22;28937;51.160;4.146;2023-02-15T07:34:15;8.40;96.40
43346;DHT22;28937;51.160;4.146;2023-02-15T07:36:41;8.40;96.50
43346;DHT22;28937;51.160;4.146;2023-02-15T07:39:10;8.40;96.50
43346;DHT22;28937;51.160;4.146;2023-02-15T07:41:35;8.40;96.40
43346;DHT22;28937;51.160;4.146;2023-02-15T07:44:01;8.40;96.50
43346;DHT22;28937;51.160;4.146;2023-02-15T07:46:27;8.40;96.50
43346;DHT22;28937;51.160;4.146;2023-02-15T07:48:53;8.40;96.60
43346;DHT22;28937;51.160;4.146;2023-02-15T07:51:19;8.40;96.50
43346;DHT22;28937;51.160;4.146;2023-02-15T07:53:45;8.40;96.50
43346;DHT22;28937;51.160;4.146;2023-02-15T07:56:12;8.40;96.60
43346;DHT22;28937;51.160;4.146;2023-02-15T07:58:38;8.40;96.60
43346;DHT22;28937;51.160;4.146;2023-02-15T08:03:49;8.40;96.70
43346;DHT22;28937;51.160;4.146;2023-02-15T08:06:15;8.40;96.60
43346;DHT22;28937;51.160;4.146;2023-02-15T08:08:42;8.50;96.60
43346;DHT22;28937;51.160;4.146;2023-02-15T08:11:16;8.50;96.40
43346;DHT22;28937;51.160;4.146;2023-02-15T08:13:53;8.50;96.60
43346;DHT22;28937;51.160;4.146;2023-02-15T08:16:25;8.50;96.60
43346;DHT22;28937;51.160;4.146;2023-02-15T08:18:52;8.50;96.60
43346;DHT22;28937;51.160;4.146;2023-02-15T08:21:19;8.50;96.70
43346;DHT22;28937;51.160;4.146;2023-02-15T08:23:45;8.50;96.60
43346;DHT22;28937;51.160;4.146;2023-02-15T08:26:11;8.50;96.70
43346;DHT22;28937;51.160;4.146;2023-02-15T08:28:36;8.50;96.60
43346;DHT22;28937;51.160;4.146;2023-02-15T08:31:10;8.50;96.40
43346;DHT22;28937;51.160;4.146;2023-02-15T08:33:37;8.60;96.40
43346;DHT22;28937;51.160;4.146;2023-02-15T08:36:09;8.50;96.40
43346;DHT22;28937;51.160;4.146;2023-02-15T08:38:36;8.60;96.50
43346;DHT22;28937;51.160;4.146;2023-02-15T08:41:25;8.60;96.40
43346;DHT22;28937;51.160;4.146;2023-02-15T08:43:53;8.70;96.50
43346;DHT22;28937;51.160;4.146;2023-02-15T08:46:19;8.60;96.50
43346;DHT22;28937;51.160;4.146;2023-02-15T08:48:45;8.70;96.60
43346;DHT22;28937;51.160;4.146;2023-02-15T08:51:15;8.70;96.60
43346;DHT22;28937;51.160;4.146;2023-02-15T08:53:43;8.70;96.50
43346;DHT22;28937;51.160;4.146;2023-02-15T08:56:10;8.70;96.50
43346;DHT22;28937;51.160;4.146;2023-02-15T08:58:36;8.70;96.60
43346;DHT22;28937;51.160;4.146;2023-02-15T09:01:11;8.70;96.70
43346;DHT22;28937;51.160;4.146;2023-02-15T09:03:37;8.70;96.60
43346;DHT22;28937;51.160;4.146;2023-02-15T09:06:04;8.80;96.60
43346;DHT22;28937;51.160;4.146;2023-02-15T09:08:30;8.80;96.60
43346;DHT22;28937;51.160;4.146;2023-02-15T09:11:11;8.80;96.50
43346;DHT22;28937;51.160;4.146;2023-02-15T09:13:39;8.80;96.60
43346;DHT22;28937;51.160;4.146;2023-02-15T09:16:06;8.80;96.60
43346;DHT22;28937;51.160;4.146;2023-02-15T09:18:35;8.90;96.80
43346;DHT22;28937;51.160;4.146;2023-02-15T09:21:08;9.00;96.90
43346;DHT22;28937;51.160;4.146;2023-02-15T09:23:34;9.00;96.80
43346;DHT22;28937;51.160;4.146;2023-02-15T09:26:04;9.00;96.70
43346;DHT22;28937;51.160;4.146;2023-02-15T09:28:30;9.00;96.70
43346;DHT22;28937;51.160;4.146;2023-02-15T09:31:11;9.00;96.70
43346;DHT22;28937;51.160;4.146;2023-02-15T09:33:39;9.10;96.60
43346;DHT22;28937;51.160;4.146;2023-02-15T09:36:12;9.10;96.60
43346;DHT22;28937;51.160;4.146;2023-02-15T09:38:38;9.10;96.50
43346;DHT22;28937;51.160;4.146;2023-02-15T09:41:30;9.10;96.40
43346;DHT22;28937;51.160;4.146;2023-02-15T09:50:10;9.20;96.50
43346;DHT22;28937;51.160;4.146;2023-02-15T09:55:40;9.40;97.90
43346;DHT22;28937;51.160;4.146;2023-02-15T09:58:22;9.50;97.80
43346;DHT22;28937;51.160;4.146;2023-02-15T10:06:49;9.60;97.30
43346;DHT22;28937;51.160;4.146;2023-02-15T10:09:43;9.60;97.00
43346;DHT22;28937;51.160;4.146;2023-02-15T10:15:10;9.60;96.40
43346;DHT22;28937;51.160;4.146;2023-02-15T10:17:50;9.60;96.60
43346;DHT22;28937;51.160;4.146;2023-02-15T10:23:36;9.60;96.40
43346;DHT22;28937;51.160;4.146;2023-02-15T10:26:32;9.60;96.80
43346;DHT22;28937;51.160;4.146;2023-02-15T10:29:18;9.70;97.40
43346;DHT22;28937;51.160;4.146;2023-02-15T10:31:56;9.70;97.10
43346;DHT22;28937;51.160;4.146;2023-02-15T10:48:12;9.90;98.50
43346;DHT22;28937;51.160;4.146;2023-02-15T10:50:51;9.90;98.50
43346;DHT22;28937;51.160;4.146;2023-02-15T10:53:42;9.90;98.60
43346;DHT22;28937;51.160;4.146;2023-02-15T10:56:20;10.00;98.90
43346;DHT22;28937;51.160;4.146;2023-02-15T11:06:29;10.20;99.70
43346;DHT22;28937;51.160;4.146;2023-02-15T11:09:09;10.30;99.90
43346;DHT22;28937;51.160;4.146;2023-02-15T11:11:42;10.30;99.70
43346;DHT22;28937;51.160;4.146;2023-02-15T11:14:15;10.30;99.50
43346;DHT22;28937;51.160;4.146;2023-02-15T11:16:49;10.40;99.10
43346;DHT22;28937;51.160;4.146;2023-02-15T11:19:49;10.40;99.70
43346;DHT22;28937;51.160;4.146;2023-02-15T11:22:17;10.40;99.40
43346;DHT22;28937;51.160;4.146;2023-02-15T11:24:44;10.40;98.90
43346;DHT22;28937;51.160;4.146;2023-02-15T11:27:19;10.50;99.20
43346;DHT22;28937;51.160;4.146;2023-02-15T11:30:12;10.50;99.00
43346;DHT22;28937;51.160;4.146;2023-02-15T11:32:40;10.60;98.70
43346;DHT22;28937;51.160;4.146;2023-02-15T11:42:52;10.60;97.20
43346;DHT22;28937;51.160;4.146;2023-02-15T11:45:27;10.60;97.30
43346;DHT22;28937;51.160;4.146;2023-02-15T11:47:54;10.60;96.90
43346;DHT22;28937;51.160;4.146;2023-02-15T11:50:31;10.60;96.60
43346;DHT22;28937;51.160;4.146;2023-02-15T11:53:18;10.70;96.80
43346;DHT22;28937;51.160;4.146;2023-02-15T11:55:48;10.70;96.40
43346;DHT22;28937;51.160;4.146;2023-02-15T12:01:14;10.90;98.80
43346;DHT22;28937;51.160;4.146;2023-02-15T12:03:52;10.90;97.40
43346;DHT22;28937;51.160;4.146;2023-02-15T12:06:29;10.90;98.10
43346;DHT22;28937;51.160;4.146;2023-02-15T12:11:42;11.00;97.30
43346;DHT22;28937;51.160;4.146;2023-02-15T12:14:09;11.00;98.30
43346;DHT22;28937;51.160;4.146;2023-02-15T12:16:45;11.10;98.70
43346;DHT22;28937;51.160;4.146;2023-02-15T12:19:37;11.10;99.40
43346;DHT22;28937;51.160;4.146;2023-02-15T12:22:05;11.20;98.90
43346;DHT22;28937;51.160;4.146;2023-02-15T12:24:38;11.30;99.70
43346;DHT22;28937;51.160;4.146;2023-02-15T12:27:15;11.30;99.30
43346;DHT22;28937;51.160;4.146;2023-02-15T12:29:46;11.30;98.50
43346;DHT22;28937;51.160;4.146;2023-02-15T12:32:25;11.30;98.70
43346;DHT22;28937;51.160;4.146;2023-02-15T12:34:54;11.40;99.40
43346;DHT22;28937;51.160;4.146;2023-02-15T12:37:21;11.40;99.40
43346;DHT22;28937;51.160;4.146;2023-02-15T12:40:21;11.50;99.20
43346;DHT22;28937;51.160;4.146;2023-02-15T12:42:47;11.60;99.30
43346;DHT22;28937;51.160;4.146;2023-02-15T12:45:28;11.60;98.90
43346;DHT22;28937;51.160;4.146;2023-02-15T12:48:28;11.70;98.50
43346;DHT22;28937;51.160;4.146;2023-02-15T12:50:48;11.60;98.20
43346;DHT22;28937;51.160;4.146;2023-02-15T12:53:19;11.70;98.20
43346;DHT22;28937;51.160;4.146;2023-02-15T12:55:56;11.80;97.90
43346;DHT22;28937;51.160;4.146;2023-02-15T12:58:24;11.80;97.80
43346;DHT22;28937;51.160;4.146;2023-02-15T13:03:36;11.80;96.40
43346;DHT22;28937;51.160;4.146;2023-02-15T13:06:04;11.80;96.20
43346;DHT22;28937;51.160;4.146;2023-02-15T13:08:57;11.80;95.80
43346;DHT22;28937;51.160;4.146;2023-02-15T13:11:29;11.80;95.70
43346;DHT22;28937;51.160;4.146;2023-02-15T13:14:16;11.90;96.30
43346;DHT22;28937;51.160;4.146;2023-02-15T13:16:44;11.90;96.50
43346;DHT22;28937;51.160;4.146;2023-02-15T13:19:22;12.00;96.40
43346;DHT22;28937;51.160;4.146;2023-02-15T13:21:53;12.00;96.10
43346;DHT22;28937;51.160;4.146;2023-02-15T13:26:48;12.00;96.20
43346;DHT22;28937;51.160;4.146;2023-02-15T13:29:22;12.10;95.90
43346;DHT22;28937;51.160;4.146;2023-02-15T13:31:50;12.10;95.90
43346;DHT22;28937;51.160;4.146;2023-02-15T13:34:27;12.20;96.00
43346;DHT22;28937;51.160;4.146;2023-02-15T13:39:39;12.20;95.90
43346;DHT22;28937;51.160;4.146;2023-02-15T13:47:54;12.30;95.60
43346;DHT22;28937;51.160;4.146;2023-02-15T14:01:20;12.40;95.80
43346;DHT22;28937;51.160;4.146;2023-02-15T14:15:21;12.60;95.30
43346;DHT22;28937;51.160;4.146;2023-02-15T14:26:06;12.70;95.80
43346;DHT22;28937;51.160;4.146;2023-02-15T14:31:29;12.80;95.40
43346;DHT22;28937;51.160;4.146;2023-02-15T14:33:58;12.70;95.30
43346;DHT22;28937;51.160;4.146;2023-02-15T14:36:26;12.80;95.90
43346;DHT22;28937;51.160;4.146;2023-02-15T14:42:15;12.90;95.70
43346;DHT22;28937;51.160;4.146;2023-02-15T14:44:55;13.10;96.20
43346;DHT22;28937;51.160;4.146;2023-02-15T14:47:28;13.20;96.30
43346;DHT22;28937;51.160;4.146;2023-02-15T14:49:58;13.30;96.10
43346;DHT22;28937;51.160;4.146;2023-02-15T14:52:27;13.40;95.90
43346;DHT22;28937;51.160;4.146;2023-02-15T14:54:53;13.50;95.60
43346;DHT22;28937;51.160;4.146;2023-02-15T14:57:24;13.50;95.20
43346;DHT22;28937;51.160;4.146;2023-02-15T15:02:48;13.60;95.40
43346;DHT22;28937;51.160;4.146;2023-02-15T15:05:32;13.60;95.30
43346;DHT22;28937;51.160;4.146;2023-02-15T15:08:02;13.70;95.30
43346;DHT22;28937;51.160;4.146;2023-02-15T15:10:37;13.70;95.40
43346;DHT22;28937;51.160;4.146;2023-02-15T15:16:23;13.80;94.90
43346;DHT22;28937;51.160;4.146;2023-02-15T15:18:47;13.90;94.90
43346;DHT22;28937;51.160;4.146;2023-02-15T15:37:56;13.90;94.80
43346;DHT22;28937;51.160;4.146;2023-02-15T15:49:12;13.80;93.90
43346;DHT22;28937;51.160;4.146;2023-02-15T15:51:42;13.80;95.50
43346;DHT22;28937;51.160;4.146;2023-02-15T15:54:24;13.80;94.40
43346;DHT22;28937;51.160;4.146;2023-02-15T15:57:03;13.80;94.20
43346;DHT22;28937;51.160;4.146;2023-02-15T15:59:33;13.90;94.00
43346;DHT22;28937;51.160;4.146;2023-02-15T16:02:07;13.80;94.20
43346;DHT22;28937;51.160;4.146;2023-02-15T16:04:35;13.90;94.40
43346;DHT22;28937;51.160;4.146;2023-02-15T16:09:57;14.00;94.10
43346;DHT22;28937;51.160;4.146;2023-02-15T16:12:29;14.00;94.60
43346;DHT22;28937;51.160;4.146;2023-02-15T16:14:56;14.00;94.40
43346;DHT22;28937;51.160;4.146;2023-02-15T16:17:25;13.90;94.00
43346;DHT22;28937;51.160;4.146;2023-02-15T16:19:56;13.80;94.50
43346;DHT22;28937;51.160;4.146;2023-02-15T16:22:25;13.80;94.20
43346;DHT22;28937;51.160;4.146;2023-02-15T16:27:37;13.70;94.00
43346;DHT22;28937;51.160;4.146;2023-02-15T16:32:43;13.70;94.80
43346;DHT22;28937;51.160;4.146;2023-02-15T16:35:14;13.60;94.60
43346;DHT22;28937;51.160;4.146;2023-02-15T16:37:41;13.60;94.40
43346;DHT22;28937;51.160;4.146;2023-02-15T16:40:47;13.60;93.80
43346;DHT22;28937;51.160;4.146;2023-02-15T16:43:20;13.60;94.00
43346;DHT22;28937;51.160;4.146;2023-02-15T16:45:47;13.60;94.40
43346;DHT22;28937;51.160;4.146;2023-02-15T16:48:21;13.60;94.10
43346;DHT22;28937;51.160;4.146;2023-02-15T16:50:52;13.50;93.60
43346;DHT22;28937;51.160;4.146;2023-02-15T16:53:25;13.50;93.90
43346;DHT22;28937;51.160;4.146;2023-02-15T16:55:54;13.50;94.30
43346;DHT22;28937;51.160;4.146;2023-02-15T16:58:27;13.50;94.20
43346;DHT22;28937;51.160;4.146;2023-02-15T17:00:58;13.50;94.40
43346;DHT22;28937;51.160;4.146;2023-02-15T17:03:26;13.50;94.40
43346;DHT22;28937;51.160;4.146;2023-02-15T17:05:58;13.50;94.60
43346;DHT22;28937;51.160;4.146;2023-02-15T17:08:25;13.60;94.70
43346;DHT22;28937;51.160;4.146;2023-02-15T17:13:36;13.60;95.00
43346;DHT22;28937;51.160;4.146;2023-02-15T17:18:40;13.50;94.90
43346;DHT22;28937;51.160;4.146;2023-02-15T17:21:17;13.60;94.80
43346;DHT22;28937;51.160;4.146;2023-02-15T17:23:49;13.60;95.10
43346;DHT22;28937;51.160;4.146;2023-02-15T17:26:24;13.60;95.10
43346;DHT22;28937;51.160;4.146;2023-02-15T17:31:35;13.60;95.10
43346;DHT22;28937;51.160;4.146;2023-02-15T17:34:01;13.60;95.10
43346;DHT22;28937;51.160;4.146;2023-02-15T17:36:30;13.60;94.80
43346;DHT22;28937;51.160;4.146;2023-02-15T17:41:30;13.60;94.40
43346;DHT22;28937;51.160;4.146;2023-02-15T17:43:56;13.60;94.80
43346;DHT22;28937;51.160;4.146;2023-02-15T17:46:24;13.50;93.30
43346;DHT22;28937;51.160;4.146;2023-02-15T17:48:53;13.40;93.50
43346;DHT22;28937;51.160;4.146;2023-02-15T17:51:21;13.30;93.10
43346;DHT22;28937;51.160;4.146;2023-02-15T17:53:47;13.30;93.10
43346;DHT22;28937;51.160;4.146;2023-02-15T17:56:32;13.20;93.10
43346;DHT22;28937;51.160;4.146;2023-02-15T17:58:58;13.20;93.20
43346;DHT22;28937;51.160;4.146;2023-02-15T18:01:24;13.20;93.40
43346;DHT22;28937;51.160;4.146;2023-02-15T18:04:13;13.20;93.60
43346;DHT22;28937;51.160;4.146;2023-02-15T18:06:58;13.10;93.30
43346;DHT22;28937;51.160;4.146;2023-02-15T18:09:43;13.10;93.40
43346;DHT22;28937;51.160;4.146;2023-02-15T18:12:32;13.20;94.70
43346;DHT22;28937;51.160;4.146;2023-02-15T18:14:59;13.10;94.00
43346;DHT22;28937;51.160;4.146;2023-02-15T18:17:38;13.10;94.00
43346;DHT22;28937;51.160;4.146;2023-02-15T18:22:43;13.00;94.10
43346;DHT22;28937;51.160;4.146;2023-02-15T18:25:13;13.10;95.20
43346;DHT22;28937;51.160;4.146;2023-02-15T18:27:40;13.10;95.20
43346;DHT22;28937;51.160;4.146;2023-02-15T18:30:06;13.10;94.70
43346;DHT22;28937;51.160;4.146;2023-02-15T18:32:35;13.10;95.00
43346;DHT22;28937;51.160;4.146;2023-02-15T18:35:02;13.10;94.10
43346;DHT22;28937;51.160;4.146;2023-02-15T18:37:30;13.20;93.50
43346;DHT22;28937;51.160;4.146;2023-02-15T18:39:58;13.20;93.40
43346;DHT22;28937;51.160;4.146;2023-02-15T18:42:33;13.10;94.00
43346;DHT22;28937;51.160;4.146;2023-02-15T18:45:03;13.10;94.30
43346;DHT22;28937;51.160;4.146;2023-02-15T18:47:32;13.10;95.00
43346;DHT22;28937;51.160;4.146;2023-02-15T18:49:57;13.10;94.90
43346;DHT22;28937;51.160;4.146;2023-02-15T18:52:25;13.10;93.90
43346;DHT22;28937;51.160;4.146;2023-02-15T18:54:57;13.10;93.80
43346;DHT22;28937;51.160;4.146;2023-02-15T18:57:24;13.10;93.90
43346;DHT22;28937;51.160;4.146;2023-02-15T18:59:50;13.00;93.80
43346;DHT22;28937;51.160;4.146;2023-02-15T19:02:20;13.00;94.00
43346;DHT22;28937;51.160;4.146;2023-02-15T19:04:46;13.10;95.30
43346;DHT22;28937;51.160;4.146;2023-02-15T19:07:31;13.00;95.40
43346;DHT22;28937;51.160;4.146;2023-02-15T19:09:59;13.20;96.00
43346;DHT22;28937;51.160;4.146;2023-02-15T19:12:27;13.10;95.80